Nearby METAR Reports

 

KHQM - Hoquiam,WA, USA
Updated: 09/22/2020 12:53pm
Partly cloudy
Partly cloudy
 Wind from S
Wind: S 3 mph , 6 km/h
Temperature: 64°F , 18°C
Dew Point: 54°F , 12°C
Humidity: 68%
Barometer: 30.02 inHg , 1016.6 hPa
Clouds: Partly cloudy
Visibility: 10 miles , 16 km
Cloud details: Partly cloudy 4300 ft
2020/09/22 19:53 KHQM 221953Z AUTO 19003KT 10SM SCT043 18/12 A3002 RMK AO2 SLP169 T01780122 $